Informes de METAR cercanos

 

LEXJ - Santander/Parayas, Spain
Distance from station: ESE 6km
Actualización: 08/12/2021 06:30
Lluvia débil, Muy nuboso
Lluvia débil, Muy nuboso
 Viento del ONO
Viento: ONO 39 km/h, Racha: 57 km/h
Temperatura: 7°C
Wind Chill: 2°C
Rocío: 3°C
Humedad: 76%
Barómetro: 1009 hPa
Resumen: Lluvia débil
Clouds: Muy nuboso
Visibility: 5 km
Cloud details: Parcialmente nuboso 914 m
Muy nuboso 1372 m
2021/12/08 05:30 LEXJ 080530Z 29021G31KT 260V320 5000 -RA SCT030 BKN045 07/03 Q1009
LEBB - Bilbao/Sondica, Spain
Distance from station: ESE 80km
Actualización: 08/12/2021 06:30
Parcialmente nuboso
Parcialmente nuboso
 Viento del varies
Viento: varies 7 km/h, Racha: 35 km/h
Temperatura: 8°C
Wind Chill: 7°C
Rocío: 5°C
Humedad: 82%
Barómetro: 1009 hPa
Clouds: Parcialmente nuboso
Visibility: 10 km
Cloud details: Few Clouds 853 m
Parcialmente nuboso 1463 m
2021/12/08 05:30 LEBB 080530Z VRB04G19KT 9999 FEW028 SCT048 08/05 Q1009 TEMPO 3000 SHRA SCT030TCU
 
LEBL - Barcelona Airpor, Spain
Distance from station: ESE 726km
Actualización: 08/12/2021 06:30
Few Clouds
Few Clouds
 Viento del OSO
Viento: OSO 22 km/h
Temperatura: 13°C
Rocío: 7°C
Humedad: 67%
Barómetro: 1005 hPa
Clouds: Few Clouds
Visibility: 10 km
Cloud details: Few Clouds 762 m
2021/12/08 05:30 LEBL 080530Z 25012KT 9999 FEW025 13/07 Q1005 NOSIG
LEMD - Madrid/Barajas, Spain
Distance from station: S 325km
Actualización: 08/12/2021 06:30
Few Clouds
Few Clouds
 Viento del O
Viento: O 22 km/h, Racha: 41 km/h
Temperatura: 8°C
Wind Chill: 4°C
Rocío: 1°C
Humedad: 62%
Barómetro: 1012 hPa
Clouds: Few Clouds
Visibility: 10 km
Cloud details: Few Clouds 1524 m
2021/12/08 05:30 LEMD 080530Z 26012G22KT 9999 FEW050 08/01 Q1012 NOSIG
 
LPPT - Lisbon/Portela, Portugal
Distance from station: SO 663km
Actualización: 08/12/2021 06:30
Muy nuboso
Muy nuboso
 Viento del ONO
Viento: ONO 7 km/h
Temperatura: 12°C
Rocío: 9°C
Humedad: 82%
Barómetro: 1020 hPa
Clouds: Muy nuboso
Visibility: 10 km
Cloud details: Few Clouds 610 m
Muy nuboso 914 m
2021/12/08 05:30 LPPT 080530Z 29004KT 260V320 9999 FEW020 BKN030 12/09 Q1020
LECO - La Coruna/Alvedr, Spain
Distance from station: O 349km
Actualización: 08/12/2021 06:30
Parcialmente nuboso
Parcialmente nuboso
 Viento del O
Viento: O 20 km/h
Temperatura: 8°C
Wind Chill: 4°C
Rocío: 4°C
Humedad: 76%
Barómetro: 1013 hPa
Clouds: Parcialmente nuboso
Visibility: 10 km
Cloud details: Parcialmente nuboso 1036 m
2021/12/08 05:30 LECO 080530Z 26011KT 210V300 9999 SCT034 08/04 Q1013 TEMPO 3000 SHRA SCT030TCU
 
LEST - Santiago/Labacol, Spain
Distance from station: O 358km
Actualización: 08/12/2021 06:30
Few Clouds
Few Clouds
 Viento del O
Viento: O 11 km/h
Temperatura: 4°C
Wind Chill: 1°C
Rocío: 2°C
Humedad: 87%
Barómetro: 1014 hPa
Clouds: Few Clouds
Visibility: 10 km
Cloud details: Few Clouds 762 m
2021/12/08 05:30 LEST 080530Z 28006KT 250V320 9999 FEW025 04/02 Q1014 TEMPO 3000 SHRA BKN020TCU
EBBR - Brussels International Airport, Belgium
Distance from station: O 1339km
Actualización: 08/12/2021 06:20
Few Clouds
Few Clouds
 Viento del SSO
Viento: SSO 20 km/h
Temperatura: 5°C
Wind Chill: 1°C
Rocío: 1°C
Humedad: 76%
Barómetro: 994 hPa
Clouds: Few Clouds
Visibility: 10 km
Cloud details: Few Clouds 640 m
2021/12/08 05:20 EBBR 080520Z 21011KT 9999 FEW021 05/01 Q0994 NOSIG